createdAt,value
2022-10-05T00:00:22.861Z,101655.78
2022-10-05T00:02:52.297Z,101645.91
2022-10-05T00:05:31.741Z,101649.78
2022-10-05T00:08:14.706Z,101645.34
2022-10-05T00:10:42.424Z,101643.63
2022-10-05T00:13:19.308Z,101649.91
2022-10-05T00:15:48.443Z,101644.47
2022-10-05T00:18:20.641Z,101645.34
2022-10-05T00:20:48.599Z,101638.03
2022-10-05T00:23:29.550Z,101639.03
2022-10-05T00:26:09.561Z,101632.56
2022-10-05T00:28:36.325Z,101632.56
2022-10-05T00:31:02.849Z,101624.41
2022-10-05T00:33:29.385Z,101623.56
2022-10-05T00:35:55.890Z,101625.41
2022-10-05T00:38:23.067Z,101629.84
2022-10-05T00:41:02.825Z,101625.41
2022-10-05T00:43:57.150Z,101625.56
2022-10-05T00:46:38.839Z,101630.00
2022-10-05T00:49:50.369Z,101618.25
2022-10-05T00:52:45.965Z,101622.69
2022-10-05T00:55:32.865Z,101619.13
2022-10-05T00:58:08.258Z,101630.84
2022-10-05T01:00:42.505Z,101624.84
2022-10-05T01:03:21.027Z,101623.28
2022-10-05T01:06:06.177Z,101628.00
2022-10-05T01:08:51.037Z,101622.56
2022-10-05T01:11:30.114Z,101615.25
2022-10-05T01:14:02.571Z,101622.56
2022-10-05T01:16:53.311Z,101616.25
2022-10-05T01:19:59.595Z,101614.38
2022-10-05T01:22:40.932Z,101611.66
2022-10-05T01:25:28.895Z,101599.22
2022-10-05T01:28:33.901Z,101592.34
2022-10-05T01:31:06.763Z,101595.78
2022-10-05T01:33:57.386Z,101591.47
2022-10-05T01:36:46.960Z,101589.91
2022-10-05T01:39:17.480Z,101587.31
2022-10-05T01:41:53.422Z,101583.03
2022-10-05T01:44:33.010Z,101589.63
2022-10-05T01:47:26.070Z,101577.03
2022-10-05T01:50:03.155Z,101579.75
2022-10-05T01:52:51.916Z,101572.44
2022-10-05T01:55:52.924Z,101577.16
2022-10-05T01:58:55.309Z,101577.03
2022-10-05T02:01:34.325Z,101578.75
2022-10-05T02:04:42.758Z,101573.00
2022-10-05T02:07:15.354Z,101572.72
2022-10-05T02:09:51.943Z,101562.69
2022-10-05T02:12:22.231Z,101559.97
2022-10-05T02:14:55.989Z,101553.81
2022-10-05T02:17:31.767Z,101546.78
2022-10-05T02:20:02.092Z,101549.50
2022-10-05T02:22:38.334Z,101541.50
2022-10-05T02:25:13.724Z,101540.63
2022-10-05T02:28:25.149Z,101536.19
2022-10-05T02:30:56.729Z,101541.66
2022-10-05T02:33:29.053Z,101543.50
2022-10-05T02:36:05.326Z,101538.06
2022-10-05T02:38:59.589Z,101536.19
2022-10-05T02:42:03.324Z,101534.47
2022-10-05T02:44:57.431Z,101519.16
2022-10-05T02:47:44.785Z,101522.03
2022-10-05T02:50:27.342Z,101515.72
2022-10-05T02:53:09.401Z,101515.72
2022-10-05T02:55:45.857Z,101504.84
2022-10-05T02:58:16.329Z,101516.44
2022-10-05T03:00:50.689Z,101505.69
2022-10-05T03:03:29.725Z,101503.97
2022-10-05T03:06:06.732Z,101504.84
2022-10-05T03:09:07.195Z,101493.97
2022-10-05T03:11:55.676Z,101490.22
2022-10-05T03:14:39.560Z,101489.53
2022-10-05T03:17:27.387Z,101484.06
2022-10-05T03:20:04.177Z,101478.94
2022-10-05T03:22:49.106Z,101477.22
2022-10-05T03:25:19.187Z,101484.66
2022-10-05T03:28:24.565Z,101482.81
2022-10-05T03:31:04.877Z,101481.38
2022-10-05T03:34:06.264Z,101492.56
2022-10-05T03:36:55.934Z,101496.25
2022-10-05T03:39:36.356Z,101490.81
2022-10-05T03:42:25.312Z,101489.19
2022-10-05T03:44:59.477Z,101495.38
2022-10-05T03:47:29.178Z,101492.56
2022-10-05T03:50:17.679Z,101488.09
2022-10-05T03:53:06.713Z,101489.69
2022-10-05T03:55:52.840Z,101487.69
2022-10-05T03:58:30.295Z,101489.41
2022-10-05T04:01:02.557Z,101487.53
2022-10-05T04:03:38.047Z,101481.09
2022-10-05T04:06:13.780Z,101476.78
2022-10-05T04:09:07.311Z,101474.38
2022-10-05T04:11:46.415Z,101483.38
2022-10-05T04:14:19.547Z,101486.97
2022-10-05T04:16:51.738Z,101473.50
2022-10-05T04:19:27.051Z,101485.34
2022-10-05T04:22:12.321Z,101478.19
2022-10-05T04:25:09.910Z,101481.66
2022-10-05T04:27:45.738Z,101492.41
2022-10-05T04:30:16.658Z,101486.97
2022-10-05T04:32:45.701Z,101483.50
2022-10-05T04:35:16.035Z,101487.22
2022-10-05T04:38:02.491Z,101484.66
2022-10-05T04:40:41.114Z,101477.34
2022-10-05T04:43:18.689Z,101473.88
2022-10-05T04:46:09.326Z,101466.56
2022-10-05T04:48:57.641Z,101474.03
2022-10-05T04:51:51.029Z,101474.16
2022-10-05T04:54:37.293Z,101473.47
2022-10-05T04:57:10.678Z,101475.03
2022-10-05T05:00:05.500Z,101468.59
2022-10-05T05:02:47.422Z,101462.28
2022-10-05T05:05:31.598Z,101468.00
2022-10-05T05:08:31.919Z,101458.28
2022-10-05T05:11:25.977Z,101462.00
2022-10-05T05:14:12.052Z,101464.00
2022-10-05T05:16:41.650Z,101458.72
2022-10-05T05:19:22.890Z,101462.44
2022-10-05T05:22:31.600Z,101463.16
2022-10-05T05:25:31.640Z,101465.44
2022-10-05T05:28:23.285Z,101469.72
2022-10-05T05:30:56.817Z,101466.16
2022-10-05T05:33:46.698Z,101460.16
2022-10-05T05:36:23.349Z,101457.56
2022-10-05T05:39:24.065Z,101452.44
2022-10-05T05:42:02.089Z,101456.28
2022-10-05T05:44:44.575Z,101455.88
2022-10-05T05:47:29.537Z,101449.88
2022-10-05T05:50:07.315Z,101451.88
2022-10-05T05:52:47.123Z,101447.56
2022-10-05T05:55:29.711Z,101451.28
2022-10-05T05:58:12.191Z,101449.72
2022-10-05T06:00:49.662Z,101443.28
2022-10-05T06:03:23.277Z,101442.44
2022-10-05T06:05:57.156Z,101443.28
2022-10-05T06:08:34.096Z,101441.28
2022-10-05T06:11:09.394Z,101435.56
2022-10-05T06:16:27.625Z,101446.13
2022-10-05T06:18:59.714Z,101441.56
2022-10-05T06:21:35.865Z,101444.28
2022-10-05T06:24:20.966Z,101438.13
2022-10-05T06:27:06.255Z,101446.13
2022-10-05T06:30:03.906Z,101449.56
2022-10-05T06:32:45.181Z,101448.41
2022-10-05T06:35:23.352Z,101447.56
2022-10-05T06:38:08.363Z,101453.88
2022-10-05T06:41:06.435Z,101442.97
2022-10-05T06:44:00.153Z,101433.81
2022-10-05T06:46:53.472Z,101440.84
2022-10-05T06:49:46.266Z,101440.41
2022-10-05T06:52:57.578Z,101440.81
2022-10-05T06:55:43.358Z,101440.66
2022-10-05T06:58:28.266Z,101439.81
2022-10-05T07:01:02.563Z,101442.38
2022-10-05T07:04:13.374Z,101440.38
2022-10-05T07:06:45.825Z,101436.41
2022-10-05T07:09:24.944Z,101447.00
2022-10-05T07:12:15.001Z,101442.13
2022-10-05T07:15:19.583Z,101436.09
2022-10-05T07:18:04.631Z,101442.97
2022-10-05T07:21:08.726Z,101443.81
2022-10-05T07:24:19.406Z,101443.69
2022-10-05T07:26:55.439Z,101448.69
2022-10-05T07:29:31.967Z,101450.81
2022-10-05T07:32:11.938Z,101453.78
2022-10-05T07:34:57.585Z,101452.50
2022-10-05T07:37:54.330Z,101456.63
2022-10-05T07:40:41.580Z,101454.63
2022-10-05T07:44:04.329Z,101459.59
2022-10-05T07:46:56.709Z,101451.00
2022-10-05T07:49:37.883Z,101455.84
2022-10-05T07:52:11.616Z,101451.94
2022-10-05T07:55:13.463Z,101450.78
2022-10-05T07:57:55.141Z,101460.25
2022-10-05T08:00:24.578Z,101458.09
2022-10-05T08:03:04.907Z,101460.66
2022-10-05T08:05:35.543Z,101465.66
2022-10-05T08:08:18.161Z,101448.00
2022-10-05T08:11:13.379Z,101459.44
2022-10-05T08:13:57.242Z,101458.16
2022-10-05T08:16:28.460Z,101460.44
2022-10-05T08:18:57.343Z,101452.97
2022-10-05T08:21:31.755Z,101442.63
2022-10-05T08:24:47.524Z,101447.47
2022-10-05T08:27:17.195Z,101431.34
2022-10-05T08:30:01.298Z,101426.59
2022-10-05T08:32:34.913Z,101430.72
2022-10-05T08:35:39.204Z,101433.00
2022-10-05T08:38:16.634Z,101435.63
2022-10-05T08:41:07.298Z,101416.63
2022-10-05T08:43:55.121Z,101420.47
2022-10-05T08:46:46.115Z,101422.72
2022-10-05T08:49:38.730Z,101411.50
2022-10-05T08:52:22.995Z,101420.22
2022-10-05T08:55:22.836Z,101415.31
2022-10-05T08:58:21.838Z,101422.00
2022-10-05T09:00:54.088Z,101410.63
2022-10-05T09:03:58.800Z,101411.34
2022-10-05T09:06:43.771Z,101408.84
2022-10-05T09:09:28.573Z,101407.19
2022-10-05T09:12:21.103Z,101400.38
2022-10-05T09:15:25.694Z,101398.03
2022-10-05T09:18:20.355Z,101400.13
2022-10-05T09:20:55.121Z,101399.31
2022-10-05T09:23:39.024Z,101401.44
2022-10-05T09:26:45.347Z,101395.16
2022-10-05T09:29:35.303Z,101398.94
2022-10-05T09:32:20.174Z,101395.56
2022-10-05T09:35:08.425Z,101398.66
2022-10-05T09:37:53.535Z,101394.72
2022-10-05T09:40:55.133Z,101391.69
2022-10-05T09:44:04.787Z,101396.81
2022-10-05T09:47:04.050Z,101388.44
2022-10-05T09:49:52.141Z,101388.84
2022-10-05T09:52:33.946Z,101389.38
2022-10-05T09:55:34.329Z,101394.84
2022-10-05T09:58:30.397Z,101375.06
2022-10-05T10:01:09.710Z,101378.00
2022-10-05T10:03:59.153Z,101382.78
2022-10-05T10:07:04.969Z,101379.75
2022-10-05T10:09:53.448Z,101373.78
2022-10-05T10:12:28.488Z,101367.97
2022-10-05T10:15:07.311Z,101366.09
2022-10-05T10:17:55.558Z,101355.50
2022-10-05T10:20:52.845Z,101354.16
2022-10-05T10:24:00.229Z,101353.47
2022-10-05T10:26:48.645Z,101348.00
2022-10-05T10:29:35.810Z,101353.47
2022-10-05T10:32:17.604Z,101341.38
2022-10-05T10:35:22.058Z,101334.69
2022-10-05T10:38:12.859Z,101333.47
2022-10-05T10:40:52.553Z,101329.72
2022-10-05T10:43:39.247Z,101334.34
2022-10-05T10:46:34.300Z,101326.28
2022-10-05T10:49:06.982Z,101319.75
2022-10-05T10:51:47.403Z,101318.69
2022-10-05T10:54:34.755Z,101322.25
2022-10-05T10:57:16.917Z,101319.50
2022-10-05T10:59:43.438Z,101319.16
2022-10-05T11:02:33.233Z,101318.63
2022-10-05T11:05:23.243Z,101313.47
2022-10-05T11:07:58.057Z,101296.66
2022-10-05T11:10:42.691Z,101298.22
2022-10-05T11:13:15.395Z,101302.13
2022-10-05T11:16:02.913Z,101298.53
2022-10-05T11:19:00.655Z,101291.31
2022-10-05T11:21:36.420Z,101283.22
2022-10-05T11:24:38.600Z,101287.13
2022-10-05T11:27:33.815Z,101280.53
2022-10-05T11:30:36.925Z,101281.81
2022-10-05T11:33:29.688Z,101280.09
2022-10-05T11:36:27.021Z,101277.47
2022-10-05T11:39:11.466Z,101270.56
2022-10-05T11:42:11.973Z,101265.88
2022-10-05T11:45:11.639Z,101263.75
2022-10-05T11:48:11.911Z,101252.88
2022-10-05T11:50:38.461Z,101250.91
2022-10-05T11:53:18.513Z,101236.25
2022-10-05T11:56:06.063Z,101248.00
2022-10-05T11:58:39.095Z,101234.69
2022-10-05T12:01:12.746Z,101235.63
2022-10-05T12:03:57.457Z,101231.66
2022-10-05T12:06:50.400Z,101219.91
2022-10-05T12:10:07.816Z,101213.50
2022-10-05T12:13:00.349Z,101205.25
2022-10-05T12:15:34.922Z,101203.69
2022-10-05T12:18:16.747Z,101201.22
2022-10-05T12:21:28.108Z,101186.31
2022-10-05T12:24:06.956Z,101189.63
2022-10-05T12:26:44.623Z,101185.03
2022-10-05T12:29:16.938Z,101182.56
2022-10-05T12:31:54.685Z,101178.63
2022-10-05T12:34:52.451Z,101182.59
2022-10-05T12:37:40.289Z,101176.81
2022-10-05T12:40:25.399Z,101174.84
2022-10-05T12:43:04.669Z,101169.44
2022-10-05T12:46:01.387Z,101163.78
2022-10-05T12:48:56.192Z,101169.59
2022-10-05T12:51:30.713Z,101163.31
2022-10-05T12:54:20.674Z,101162.09
2022-10-05T12:56:59.210Z,101164.22
2022-10-05T12:59:59.493Z,101169.16
2022-10-05T13:02:45.438Z,101167.28
2022-10-05T13:05:33.090Z,101165.63
2022-10-05T13:08:17.937Z,101164.34
2022-10-05T13:11:02.112Z,101166.06
2022-10-05T13:14:07.362Z,101163.78
2022-10-05T13:16:42.516Z,101162.78
2022-10-05T13:19:27.687Z,101161.53
2022-10-05T13:22:18.925Z,101164.72
2022-10-05T13:25:04.519Z,101164.94
2022-10-05T13:27:36.672Z,101154.13
2022-10-05T13:30:15.727Z,101154.13
2022-10-05T13:32:48.153Z,101163.03
2022-10-05T13:35:29.906Z,101160.03
2022-10-05T13:38:07.814Z,101151.78
2022-10-05T13:40:53.437Z,101150.72
2022-10-05T13:43:33.400Z,101161.97
2022-10-05T13:46:34.060Z,101160.47
2022-10-05T13:49:19.128Z,101173.75
2022-10-05T13:51:54.369Z,101166.50
2022-10-05T13:54:55.974Z,101163.06
2022-10-05T13:57:29.972Z,101165.56
2022-10-05T14:00:13.310Z,101167.81
2022-10-05T14:02:43.345Z,101168.22
2022-10-05T14:05:21.650Z,101164.97
2022-10-05T14:07:52.929Z,101173.41
2022-10-05T14:10:37.389Z,101176.28
2022-10-05T14:13:22.350Z,101171.97
2022-10-05T14:16:23.060Z,101170.03
2022-10-05T14:19:15.981Z,101166.44
2022-10-05T14:21:49.502Z,101166.03
2022-10-05T14:24:43.812Z,101168.97
2022-10-05T14:27:33.637Z,101174.47
2022-10-05T14:30:11.871Z,101178.28
2022-10-05T14:32:59.423Z,101173.44
2022-10-05T14:35:56.598Z,101174.94
2022-10-05T14:38:23.102Z,101167.94
2022-10-05T14:41:06.415Z,101161.53
2022-10-05T14:43:33.953Z,101177.78
2022-10-05T14:46:14.521Z,101177.69
2022-10-05T14:48:44.204Z,101181.91
2022-10-05T14:51:28.231Z,101171.31
2022-10-05T14:54:00.125Z,101177.84
2022-10-05T14:56:57.394Z,101185.66
2022-10-05T14:59:36.342Z,101181.59
2022-10-05T15:02:21.102Z,101186.19
2022-10-05T15:05:00.405Z,101191.81
2022-10-05T15:07:42.525Z,101192.97
2022-10-05T15:10:30.190Z,101202.84
2022-10-05T15:13:24.412Z,101214.38
2022-10-05T15:16:05.365Z,101220.34
2022-10-05T15:18:49.473Z,101236.47
2022-10-05T15:21:43.657Z,101239.91
2022-10-05T15:24:20.975Z,101260.00
2022-10-05T15:27:01.272Z,101275.59
2022-10-05T15:29:41.876Z,101281.03
2022-10-05T15:32:20.633Z,101281.69
2022-10-05T15:35:09.222Z,101297.09
2022-10-05T15:37:51.596Z,101298.75
2022-10-05T15:40:27.962Z,101306.22
2022-10-05T15:43:03.994Z,101323.28
2022-10-05T15:45:37.603Z,101328.13
2022-10-05T15:48:23.467Z,101317.94
2022-10-05T15:51:02.867Z,101317.13
2022-10-05T15:54:28.421Z,101316.50
2022-10-05T15:57:06.307Z,101306.59
2022-10-05T15:59:48.420Z,101306.81
2022-10-05T16:02:22.641Z,101313.00
2022-10-05T16:05:04.771Z,101304.47
2022-10-05T16:08:08.293Z,101311.47
2022-10-05T16:10:38.855Z,101310.97
2022-10-05T16:13:38.110Z,101313.56
2022-10-05T16:16:24.832Z,101316.84
2022-10-05T16:19:33.648Z,101307.78
2022-10-05T16:22:14.089Z,101310.38
2022-10-05T16:24:40.580Z,101319.28
2022-10-05T16:27:20.597Z,101317.94
2022-10-05T16:30:08.651Z,101320.16
2022-10-05T16:32:49.883Z,101315.88
2022-10-05T16:35:37.922Z,101327.88
2022-10-05T16:38:19.522Z,101328.34
2022-10-05T16:41:02.383Z,101333.50
2022-10-05T16:43:53.967Z,101334.69
2022-10-05T16:46:40.953Z,101337.59
2022-10-05T16:49:16.187Z,101342.22
2022-10-05T16:51:52.006Z,101344.28
2022-10-05T16:54:43.111Z,101343.25
2022-10-05T16:57:26.554Z,101340.84
2022-10-05T17:00:04.187Z,101343.25
2022-10-05T17:02:46.957Z,101355.53
2022-10-05T17:05:40.468Z,101350.41
2022-10-05T17:08:31.745Z,101358.09
2022-10-05T17:11:17.277Z,101361.16
2022-10-05T17:13:52.605Z,101355.69
2022-10-05T17:16:35.882Z,101358.94
2022-10-05T17:19:32.113Z,101359.13
2022-10-05T17:22:03.109Z,101361.00
2022-10-05T17:25:08.915Z,101357.91
2022-10-05T17:27:51.204Z,101371.06
2022-10-05T17:30:23.583Z,101376.72
2022-10-05T17:33:04.488Z,101376.88
2022-10-05T17:35:52.592Z,101372.44
2022-10-05T17:38:41.669Z,101383.38
2022-10-05T17:41:20.104Z,101386.13
2022-10-05T17:44:19.374Z,101382.53
2022-10-05T17:47:00.212Z,101392.59
2022-10-05T17:49:47.694Z,101394.66
2022-10-05T17:52:52.399Z,101398.06
2022-10-05T17:55:34.468Z,101399.78
2022-10-05T17:58:24.046Z,101405.25
2022-10-05T18:00:56.749Z,101393.28
2022-10-05T18:03:50.479Z,101406.09
2022-10-05T18:06:26.286Z,101411.56
2022-10-05T18:09:16.887Z,101406.78
2022-10-05T18:11:48.009Z,101412.94
2022-10-05T18:14:24.561Z,101414.66
2022-10-05T18:17:01.513Z,101403.72
2022-10-05T18:19:32.147Z,101404.91
2022-10-05T18:22:21.399Z,101401.66
2022-10-05T18:24:55.872Z,101399.94
2022-10-05T18:27:34.743Z,101395.34
2022-10-05T18:30:17.703Z,101413.63
2022-10-05T18:33:03.451Z,101410.03
2022-10-05T18:35:46.762Z,101410.88
2022-10-05T18:38:42.102Z,101419.44
2022-10-05T18:41:18.545Z,101413.63
2022-10-05T18:44:13.421Z,101408.31
2022-10-05T18:46:55.223Z,101412.06
2022-10-05T18:49:42.898Z,101408.50
2022-10-05T18:52:25.593Z,101420.28
2022-10-05T18:55:28.925Z,101413.97
2022-10-05T18:58:22.974Z,101418.41
2022-10-05T19:01:03.259Z,101420.28
2022-10-05T19:04:04.583Z,101422.00
2022-10-05T19:06:45.201Z,101424.38
2022-10-05T19:09:41.618Z,101420.97
2022-10-05T19:12:25.207Z,101431.75
2022-10-05T19:15:18.877Z,101433.63
2022-10-05T19:18:06.397Z,101435.16
2022-10-05T19:20:46.021Z,101441.47
2022-10-05T19:23:28.953Z,101450.53
2022-10-05T19:26:23.003Z,101452.41
2022-10-05T19:29:07.147Z,101453.09
2022-10-05T19:31:53.041Z,101455.84
2022-10-05T19:34:43.410Z,101470.38
2022-10-05T19:37:15.709Z,101460.28
2022-10-05T19:39:48.473Z,101453.09
2022-10-05T19:42:45.075Z,101463.19
2022-10-05T19:45:24.714Z,101467.47
2022-10-05T19:48:20.569Z,101457.38
2022-10-05T19:51:15.886Z,101465.44
2022-10-05T19:53:49.901Z,101468.69
2022-10-05T19:56:22.084Z,101484.59
2022-10-05T19:58:49.940Z,101502.72
2022-10-05T20:01:47.557Z,101513.47
2022-10-05T20:04:16.303Z,101533.31
2022-10-05T20:06:42.975Z,101528.88
2022-10-05T20:09:20.695Z,101545.78
2022-10-05T20:11:53.053Z,101543.22
2022-10-05T20:14:32.235Z,101550.03
2022-10-05T20:17:43.925Z,101553.09
2022-10-05T20:20:34.753Z,101552.75
2022-10-05T20:23:24.472Z,101547.25
2022-10-05T20:26:11.000Z,101552.34
2022-10-05T20:28:37.769Z,101549.09
2022-10-05T20:31:07.540Z,101552.16
2022-10-05T20:33:34.431Z,101565.28
2022-10-05T20:36:03.517Z,101573.94
2022-10-05T20:38:31.516Z,101575.28
2022-10-05T20:40:58.403Z,101581.25
2022-10-05T20:43:24.865Z,101583.59
2022-10-05T20:45:52.385Z,101592.13
2022-10-05T20:48:19.492Z,101599.63
2022-10-05T20:50:47.271Z,101612.59
2022-10-05T20:53:14.037Z,101612.59
2022-10-05T20:55:43.074Z,101620.94
2022-10-05T20:58:11.013Z,101630.16
2022-10-05T21:00:56.360Z,101627.75
2022-10-05T21:03:22.899Z,101637.81
2022-10-05T21:05:50.639Z,101639.00
2022-10-05T21:08:17.732Z,101643.75
2022-10-05T21:10:44.221Z,101651.22
2022-10-05T21:13:10.733Z,101659.41
2022-10-05T21:15:38.551Z,101662.16
2022-10-05T21:18:06.270Z,101660.28
2022-10-05T21:20:32.993Z,101683.31
2022-10-05T21:22:59.451Z,101679.72
2022-10-05T21:25:27.052Z,101687.06
2022-10-05T21:27:54.125Z,101687.06
2022-10-05T21:30:20.728Z,101697.97
2022-10-05T21:32:47.265Z,101714.38
2022-10-05T21:35:15.148Z,101710.94
2022-10-05T21:37:41.639Z,101712.97
2022-10-05T21:40:08.646Z,101727.66
2022-10-05T21:42:35.393Z,101731.69
2022-10-05T21:45:03.739Z,101727.56
2022-10-05T21:47:30.302Z,101745.44
2022-10-05T21:49:57.256Z,101764.16
2022-10-05T21:52:23.959Z,101756.72
2022-10-05T21:54:50.511Z,101764.53
2022-10-05T21:57:17.111Z,101764.25
2022-10-05T21:59:43.796Z,101766.88
2022-10-05T22:02:10.330Z,101774.66
2022-10-05T22:04:38.100Z,101772.84
2022-10-05T22:07:30.658Z,101780.22
2022-10-05T22:09:57.145Z,101782.41
2022-10-05T22:12:24.475Z,101793.41
2022-10-05T22:14:52.015Z,101788.25
2022-10-05T22:17:24.375Z,101798.63
2022-10-05T22:19:51.453Z,101807.25
2022-10-05T22:22:17.984Z,101801.38
2022-10-05T22:24:46.527Z,101813.59
2022-10-05T22:27:14.207Z,101812.03
2022-10-05T22:29:41.688Z,101826.97
2022-10-05T22:32:08.316Z,101823.66
2022-10-05T22:34:39.124Z,101841.28
2022-10-05T22:37:06.756Z,101847.03
2022-10-05T22:39:33.208Z,101836.56
2022-10-05T22:41:59.676Z,101847.63
2022-10-05T22:44:26.125Z,101852.38
2022-10-05T22:46:52.586Z,101852.66
2022-10-05T22:49:19.447Z,101861.84
2022-10-05T22:51:45.958Z,101864.00
2022-10-05T22:54:13.462Z,101871.03
2022-10-05T22:56:39.971Z,101880.63
2022-10-05T22:59:06.648Z,101884.09
2022-10-05T23:01:33.146Z,101885.66
2022-10-05T23:04:01.620Z,101890.78
2022-10-05T23:06:28.157Z,101899.66
2022-10-05T23:08:55.149Z,101899.34
2022-10-05T23:11:25.790Z,101904.34
2022-10-05T23:13:56.975Z,101913.94
2022-10-05T23:16:26.134Z,101919.78
2022-10-05T23:18:54.986Z,101918.47
2022-10-05T23:21:23.048Z,101921.63
2022-10-05T23:23:51.517Z,101940.22
2022-10-05T23:26:21.373Z,101939.78
2022-10-05T23:28:49.048Z,101937.34
2022-10-05T23:31:21.281Z,101945.63
2022-10-05T23:33:49.845Z,101939.75
2022-10-05T23:36:19.273Z,101960.94
2022-10-05T23:38:46.312Z,101957.47
2022-10-05T23:41:13.338Z,101959.75
2022-10-05T23:43:47.843Z,101964.75
2022-10-05T23:46:14.991Z,101975.88
2022-10-05T23:48:41.543Z,101982.47
2022-10-05T23:51:11.315Z,101981.00
2022-10-05T23:53:37.981Z,101991.28
2022-10-05T23:56:04.806Z,101998.69
2022-10-05T23:58:31.648Z,102006.22
